Time;durP1;ratioP1;P1;durP2;ratioP2;P2;SDS_P1;SDS_P2;PMS_P1;PMS_P2;Temp;Humidity;BMP_temperature;BMP_pressure;BME280_temperature;BME280_humidity;BME280_pressure;Samples;Min_cycle;Max_cycle;Signal;HPM_P1;HPM_P2
2022/12/26 00:00:27;;;;;;;5.53;2.83;;;14.20;1.00;;;;;;5052344;28;20500;-37
2022/12/26 00:02:53;;;;;;;3.95;2.33;;;14.30;1.00;;;;;;5052054;28;20052;-36
2022/12/26 00:05:20;;;;;;;3.53;2.80;;;14.20;1.00;;;;;;5052112;28;20041;-37
2022/12/26 00:07:47;;;;;;;4.32;2.72;;;14.20;1.00;;;;;;5052375;28;20561;-42
2022/12/26 00:10:14;;;;;;;3.60;2.42;;;14.20;1.00;;;;;;5052090;28;20041;-36
2022/12/26 00:12:40;;;;;;;4.07;2.67;;;14.20;1.00;;;;;;5051934;28;20043;-37
2022/12/26 00:15:08;;;;;;;3.63;2.50;;;14.20;1.00;;;;;;5052068;28;20531;-36
2022/12/26 00:17:35;;;;;;;4.50;2.17;;;14.20;1.00;;;;;;5052162;28;20041;-37
2022/12/26 00:20:03;;;;;;;4.35;2.58;;;14.20;1.00;;;;;;5052038;28;20470;-37
2022/12/26 00:22:30;;;;;;;4.90;3.20;;;14.20;1.00;;;;;;5051890;28;20037;-37
2022/12/26 00:24:56;;;;;;;4.70;2.65;;;14.20;1.00;;;;;;5051699;28;20041;-37
2022/12/26 00:27:23;;;;;;;4.82;2.38;;;14.20;1.00;;;;;;5051883;28;20041;-38
2022/12/26 00:29:50;;;;;;;6.10;2.75;;;14.20;1.00;;;;;;5034188;28;20091;-37
2022/12/26 00:32:17;;;;;;;6.32;3.03;;;14.20;1.00;;;;;;5051765;28;20040;-37
2022/12/26 00:34:43;;;;;;;3.47;2.20;;;14.20;1.00;;;;;;5051630;28;20045;-37
2022/12/26 00:37:10;;;;;;;6.47;2.70;;;14.20;1.00;;;;;;5051798;28;20037;-37
2022/12/26 00:39:37;;;;;;;5.32;3.17;;;14.20;1.00;;;;;;5051706;28;20073;-36
2022/12/26 00:42:03;;;;;;;4.45;2.40;;;14.20;1.00;;;;;;5052093;28;20041;-37
2022/12/26 00:44:30;;;;;;;5.10;2.95;;;14.20;1.00;;;;;;5051561;28;20459;-37
2022/12/26 00:46:57;;;;;;;5.47;2.63;;;14.20;1.00;;;;;;5051733;28;20068;-36
2022/12/26 00:49:24;;;;;;;4.40;2.83;;;14.20;1.00;;;;;;5052397;28;20052;-36
2022/12/26 00:51:51;;;;;;;4.78;2.80;;;14.20;1.00;;;;;;5058134;28;20064;-37
2022/12/26 00:54:17;;;;;;;5.22;3.15;;;14.20;1.00;;;;;;5057983;28;20136;-37
2022/12/26 00:56:44;;;;;;;4.85;2.88;;;14.20;1.00;;;;;;5058372;28;20076;-36
2022/12/26 00:59:11;;;;;;;5.80;2.97;;;14.20;1.00;;;;;;5058332;28;20041;-36
2022/12/26 01:01:38;;;;;;;3.97;2.63;;;14.10;1.00;;;;;;5058322;28;20041;-36
2022/12/26 01:04:05;;;;;;;5.15;2.58;;;14.20;1.00;;;;;;5057895;28;20079;-36
2022/12/26 01:06:32;;;;;;;4.70;2.83;;;14.20;1.00;;;;;;5058000;28;20389;-37
2022/12/26 01:08:59;;;;;;;5.05;2.85;;;14.10;1.00;;;;;;5058512;28;20388;-37
2022/12/26 01:11:41;;;;;;;4.15;2.38;;;14.20;1.00;;;;;;5058113;28;20500;-36
2022/12/26 01:14:09;;;;;;;11.55;4.80;;;14.20;1.00;;;;;;5057955;28;20496;-37
2022/12/26 01:16:37;;;;;;;4.80;2.47;;;14.20;1.00;;;;;;5058050;28;20718;-37
2022/12/26 01:19:05;;;;;;;5.20;2.42;;;14.10;1.00;;;;;;5058224;28;20160;-36
2022/12/26 01:21:32;;;;;;;6.93;2.53;;;14.10;1.00;;;;;;5058122;28;20045;-37
2022/12/26 01:23:59;;;;;;;5.18;3.28;;;14.10;1.00;;;;;;5057841;28;20049;-37
2022/12/26 01:26:26;;;;;;;3.97;2.50;;;14.10;1.00;;;;;;5040221;28;20048;-37
2022/12/26 01:28:53;;;;;;;4.93;3.03;;;14.20;1.00;;;;;;5058092;28;20037;-37
2022/12/26 01:31:21;;;;;;;4.32;2.55;;;14.10;1.00;;;;;;5057894;28;20037;-37
2022/12/26 01:33:48;;;;;;;4.07;2.35;;;14.10;1.00;;;;;;5057619;28;20051;-37
2022/12/26 01:36:16;;;;;;;5.30;3.15;;;14.10;1.00;;;;;;5057981;28;20040;-37
2022/12/26 01:38:44;;;;;;;3.80;2.45;;;14.10;1.00;;;;;;5058059;28;20455;-36
2022/12/26 01:41:18;;;;;;;4.18;2.25;;;14.10;1.00;;;;;;5058004;28;20045;-37
2022/12/26 01:43:53;;;;;;;5.32;2.45;;;14.10;1.00;;;;;;5040183;28;20057;-37
2022/12/26 01:46:44;;;;;;;5.57;2.90;;;14.20;1.00;;;;;;5057737;28;20041;-37
2022/12/26 01:49:40;;;;;;;7.15;2.60;;;14.30;1.00;;;;;;5057949;28;20550;-38
2022/12/26 01:52:11;;;;;;;5.25;2.38;;;14.30;1.00;;;;;;5055876;28;20412;-36
2022/12/26 01:54:39;;;;;;;5.20;2.35;;;14.40;1.00;;;;;;5057518;28;20048;-36
2022/12/26 01:57:22;;;;;;;4.43;1.85;;;14.60;1.00;;;;;;5057839;28;20452;-37
2022/12/26 01:59:51;;;;;;;4.45;2.25;;;14.70;1.00;;;;;;5057989;28;20128;-37
2022/12/26 02:02:20;;;;;;;3.88;2.30;;;14.80;1.00;;;;;;5054370;28;20084;-37
2022/12/26 02:07:39;;;;;;;4.03;1.85;;;15.00;1.00;;;;;;5054604;28;20053;-36
2022/12/26 02:10:20;;;;;;;2.67;2.08;;;15.10;1.00;;;;;;5054516;28;20052;-38
2022/12/26 02:12:48;;;;;;;3.78;2.15;;;15.10;1.00;;;;;;5036324;28;20103;-37
2022/12/26 02:15:16;;;;;;;3.58;1.70;;;15.20;1.00;;;;;;5054184;28;20040;-36
2022/12/26 02:17:45;;;;;;;4.22;1.73;;;15.20;1.00;;;;;;5054416;28;20041;-37
2022/12/26 02:20:22;;;;;;;4.55;2.40;;;15.30;1.00;;;;;;5054188;28;20500;-37
2022/12/26 02:23:07;;;;;;;4.28;1.80;;;15.30;1.00;;;;;;5054088;28;20485;-38
2022/12/26 02:25:52;;;;;;;2.45;1.48;;;15.40;1.00;;;;;;5054009;28;20178;-36
2022/12/26 02:28:49;;;;;;;3.00;1.98;;;15.40;1.00;;;;;;5054171;28;20095;-37
2022/12/26 02:31:38;;;;;;;3.63;1.30;;;15.40;1.00;;;;;;5036444;28;20492;-37
2022/12/26 02:34:19;;;;;;;3.72;2.03;;;15.50;1.00;;;;;;5053686;28;20124;-37
2022/12/26 02:36:58;;;;;;;2.28;1.33;;;15.50;1.00;;;;;;5036279;28;20492;-37
2022/12/26 02:39:54;;;;;;;3.08;1.55;;;15.40;1.00;;;;;;5036360;28;20056;-36
2022/12/26 02:42:44;;;;;;;5.13;1.77;;;15.50;1.00;;;;;;5053635;28;20412;-37
2022/12/26 02:48:32;;;;;;;4.65;1.70;;;15.50;1.00;;;;;;5035867;28;20132;-37
2022/12/26 03:14:52;;;;;;;4.32;1.38;;;15.40;1.00;;;;;;5053147;28;20052;-37
2022/12/26 03:17:42;;;;;;;2.75;1.40;;;15.40;1.00;;;;;;5053159;28;20045;-37
2022/12/26 03:20:14;;;;;;;2.03;1.17;;;15.40;1.00;;;;;;5053225;28;20119;-37
2022/12/26 03:22:54;;;;;;;3.55;1.58;;;15.40;1.00;;;;;;5052891;28;20069;-37
2022/12/26 03:28:34;;;;;;;3.20;1.40;;;15.30;1.00;;;;;;5053099;28;20044;-38
2022/12/26 03:31:05;;;;;;;3.72;1.30;;;15.30;1.00;;;;;;5035201;28;20044;-38
2022/12/26 03:36:54;;;;;;;2.70;1.40;;;15.30;1.00;;;;;;4990946;28;20117;-37
2022/12/26 04:19:24;;;;;;;2.05;1.20;;;15.00;1.00;;;;;;5052167;28;20033;-36
2022/12/26 04:45:20;;;;;;;5.68;1.25;;;14.90;1.00;;;;;;5036798;28;20119;-38
2022/12/26 04:50:35;;;;;;;7.22;1.85;;;14.90;1.00;;;;;;5052078;28;20037;-37
2022/12/26 04:53:01;;;;;;;5.50;1.52;;;14.90;1.00;;;;;;5051326;28;20041;-38
2022/12/26 04:55:31;;;;;;;6.32;1.67;;;14.90;1.00;;;;;;5051664;28;20116;-38
2022/12/26 04:57:58;;;;;;;3.33;1.38;;;14.90;1.00;;;;;;5051504;28;20431;-37
2022/12/26 05:00:27;;;;;;;3.63;1.40;;;14.90;1.00;;;;;;5033666;28;20424;-38
2022/12/26 05:11:26;;;;;;;3.38;1.40;;;14.80;1.00;;;;;;5051477;28;20037;-37
2022/12/26 05:13:53;;;;;;;5.55;1.48;;;14.80;1.00;;;;;;5051208;28;20041;-37
2022/12/26 05:30:25;;;;;;;3.15;1.02;;;14.70;1.00;;;;;;5051335;28;20088;-37
2022/12/26 05:35:38;;;;;;;1.95;0.82;;;14.70;1.00;;;;;;5051365;28;20471;-36
2022/12/26 05:38:05;;;;;;;4.60;1.23;;;14.60;1.00;;;;;;5054179;28;20067;-37
2022/12/26 05:40:31;;;;;;;4.65;1.20;;;14.60;1.00;;;;;;5037380;28;20500;-37
2022/12/26 05:42:59;;;;;;;6.65;1.42;;;14.60;1.00;;;;;;5037159;28;20079;-37
2022/12/26 05:45:25;;;;;;;6.00;1.23;;;14.60;1.00;;;;;;5055433;28;20492;-36
2022/12/26 05:47:59;;;;;;;4.40;1.58;;;14.60;1.00;;;;;;5054808;28;20107;-37
2022/12/26 05:50:27;;;;;;;2.03;1.02;;;14.60;1.00;;;;;;5054916;28;20045;-37
2022/12/26 05:52:57;;;;;;;3.22;1.65;;;14.60;1.00;;;;;;5054535;28;20041;-37
2022/12/26 05:55:24;;;;;;;6.55;1.50;;;14.60;1.00;;;;;;5037099;28;20065;-37
2022/12/26 05:57:51;;;;;;;4.20;2.05;;;14.60;1.00;;;;;;5054791;28;20041;-37
2022/12/26 06:00:18;;;;;;;5.30;1.83;;;14.60;1.00;;;;;;5054645;28;20048;-38
2022/12/26 06:02:45;;;;;;;6.82;1.10;;;14.60;1.00;;;;;;5054357;28;20041;-37
2022/12/26 06:05:12;;;;;;;5.38;1.27;;;14.60;1.00;;;;;;5054424;28;20064;-37
2022/12/26 06:07:38;;;;;;;5.10;1.33;;;14.60;1.00;;;;;;5054747;28;20072;-37
2022/12/26 06:10:05;;;;;;;5.20;2.03;;;14.50;1.00;;;;;;5054587;28;20045;-37
2022/12/26 06:12:33;;;;;;;3.58;1.48;;;14.50;1.00;;;;;;5054354;28;20033;-37
2022/12/26 06:15:00;;;;;;;3.78;1.30;;;14.50;1.00;;;;;;5036513;28;20043;-37
2022/12/26 06:17:27;;;;;;;7.45;1.67;;;14.50;1.00;;;;;;5054316;28;20049;-36
2022/12/26 06:19:54;;;;;;;2.72;1.05;;;14.50;1.00;;;;;;5054393;28;20046;-37
2022/12/26 06:22:21;;;;;;;3.88;1.33;;;14.50;1.00;;;;;;5054083;28;20488;-38
2022/12/26 06:24:47;;;;;;;5.18;1.38;;;14.50;1.00;;;;;;5054151;28;20053;-36
2022/12/26 06:27:15;;;;;;;5.65;1.60;;;14.50;1.00;;;;;;5054071;28;20076;-37
2022/12/26 06:29:41;;;;;;;4.57;1.38;;;14.50;1.00;;;;;;5054165;28;20569;-37
2022/12/26 06:32:08;;;;;;;7.82;1.80;;;14.50;1.00;;;;;;5054005;28;20040;-37
2022/12/26 06:34:35;;;;;;;5.95;1.52;;;14.40;1.00;;;;;;5053819;28;20048;-37
2022/12/26 06:37:01;;;;;;;2.97;1.08;;;14.50;1.00;;;;;;5036287;28;20075;-37
2022/12/26 06:39:28;;;;;;;4.22;1.13;;;14.40;1.00;;;;;;5036070;28;20090;-37
2022/12/26 06:41:55;;;;;;;8.27;1.63;;;14.40;1.00;;;;;;5053788;28;20518;-36
2022/12/26 06:44:22;;;;;;;5.68;1.50;;;14.40;1.00;;;;;;5053558;28;20083;-36
2022/12/26 06:46:48;;;;;;;3.70;1.50;;;14.40;1.00;;;;;;5053862;28;20507;-37
2022/12/26 06:49:15;;;;;;;3.83;1.50;;;14.40;1.00;;;;;;5053377;28;20481;-37
2022/12/26 06:51:43;;;;;;;2.70;1.45;;;14.40;1.00;;;;;;5053626;28;20106;-37
2022/12/26 06:54:10;;;;;;;3.25;1.17;;;14.40;1.00;;;;;;5053411;28;20071;-38
2022/12/26 06:56:37;;;;;;;4.10;1.08;;;14.40;1.00;;;;;;5053436;28;20045;-37
2022/12/26 06:59:05;;;;;;;6.90;1.33;;;14.40;1.00;;;;;;5053808;28;20515;-37
2022/12/26 07:01:33;;;;;;;4.68;1.25;;;14.40;1.00;;;;;;5053606;28;20083;-36
2022/12/26 07:04:00;;;;;;;4.10;1.30;;;14.40;1.00;;;;;;5053174;28;20033;-36
2022/12/26 07:06:32;;;;;;;4.43;1.80;;;14.40;1.00;;;;;;5053368;28;20139;-37
2022/12/26 07:09:13;;;;;;;2.13;1.38;;;14.40;1.00;;;;;;5053375;28;20507;-36
2022/12/26 07:11:42;;;;;;;2.65;1.25;;;14.30;1.00;;;;;;5053267;28;20041;-37
2022/12/26 07:14:09;;;;;;;4.88;1.15;;;14.30;1.00;;;;;;5053199;28;20091;-37
2022/12/26 07:16:38;;;;;;;5.45;1.88;;;14.30;1.00;;;;;;5053213;28;20037;-37
2022/12/26 07:19:06;;;;;;;6.53;1.13;;;14.30;1.00;;;;;;5053286;28;20049;-37
2022/12/26 07:21:33;;;;;;;4.65;1.70;;;14.30;1.00;;;;;;5052966;28;20041;-37
2022/12/26 07:24:17;;;;;;;5.35;1.55;;;14.30;1.00;;;;;;5053002;28;20037;-37
2022/12/26 07:26:45;;;;;;;5.95;1.50;;;14.30;1.00;;;;;;5053202;28;20041;-36
2022/12/26 07:29:12;;;;;;;3.13;1.08;;;14.30;1.00;;;;;;5053073;28;20326;-36
2022/12/26 07:31:40;;;;;;;4.80;1.20;;;14.30;1.00;;;;;;5052862;28;20087;-37
2022/12/26 07:34:07;;;;;;;3.88;0.88;;;14.30;1.00;;;;;;5052629;28;20055;-37
2022/12/26 07:36:34;;;;;;;5.85;1.33;;;14.30;1.00;;;;;;5052921;28;20088;-36
2022/12/26 07:39:01;;;;;;;4.07;1.40;;;14.30;1.00;;;;;;5052810;28;20036;-37
2022/12/26 07:44:13;;;;;;;7.10;2.03;;;14.30;1.00;;;;;;5052426;28;20083;-37
2022/12/26 07:46:40;;;;;;;5.35;1.83;;;14.30;1.00;;;;;;5052684;28;20150;-36
2022/12/26 07:49:09;;;;;;;8.70;1.27;;;14.30;1.00;;;;;;5052593;28;20496;-36
2022/12/26 07:51:36;;;;;;;3.55;1.00;;;14.20;1.00;;;;;;5052543;28;20055;-36
2022/12/26 07:54:03;;;;;;;6.57;1.40;;;14.20;1.00;;;;;;5052244;28;20067;-37
2022/12/26 07:56:37;;;;;;;5.25;1.88;;;14.30;1.00;;;;;;5052425;28;20045;-36
2022/12/26 07:59:04;;;;;;;4.05;1.35;;;14.20;1.00;;;;;;5051830;28;20045;-37
2022/12/26 08:01:31;;;;;;;5.90;1.35;;;14.20;1.00;;;;;;5052244;28;20124;-37
2022/12/26 08:03:58;;;;;;;4.63;1.35;;;14.20;1.00;;;;;;5052084;28;20044;-37
2022/12/26 08:06:26;;;;;;;4.75;1.40;;;14.30;1.00;;;;;;5052109;28;20095;-36
2022/12/26 08:08:53;;;;;;;6.40;1.48;;;14.30;1.00;;;;;;5049159;28;20451;-37
2022/12/26 08:11:22;;;;;;;4.47;1.40;;;14.20;1.00;;;;;;5029608;28;20119;-37
2022/12/26 08:13:50;;;;;;;8.80;1.10;;;14.30;1.00;;;;;;5048143;28;20059;-37
2022/12/26 08:16:20;;;;;;;5.00;1.00;;;14.20;1.00;;;;;;5051950;28;20045;-37
2022/12/26 08:18:47;;;;;;;5.45;1.42;;;14.20;1.00;;;;;;5052054;28;20381;-38
2022/12/26 08:21:14;;;;;;;4.70;1.20;;;14.20;1.00;;;;;;5052421;28;20043;-38
2022/12/26 08:23:41;;;;;;;6.03;1.83;;;14.30;1.00;;;;;;5051683;28;20045;-38
2022/12/26 08:26:10;;;;;;;5.15;1.05;;;14.30;1.00;;;;;;5051880;28;20037;-36
2022/12/26 08:28:40;;;;;;;7.65;1.20;;;14.40;1.00;;;;;;5051942;28;20485;-37
2022/12/26 08:31:09;;;;;;;4.07;1.05;;;14.40;1.00;;;;;;5051962;28;20132;-37
2022/12/26 08:33:36;;;;;;;6.43;1.20;;;14.50;1.00;;;;;;5051709;28;20048;-36
2022/12/26 08:36:08;;;;;;;6.63;1.45;;;14.50;1.00;;;;;;5051849;28;20040;-37
2022/12/26 08:38:36;;;;;;;4.38;1.23;;;14.60;1.00;;;;;;5051638;28;20037;-37
2022/12/26 08:41:03;;;;;;;4.55;1.60;;;14.60;1.00;;;;;;5051690;28;20116;-37
2022/12/26 08:43:29;;;;;;;4.97;1.25;;;14.70;1.00;;;;;;5051350;28;20089;-37
2022/12/26 08:46:18;;;;;;;6.05;1.52;;;14.80;1.00;;;;;;5051725;28;20045;-38
2022/12/26 08:48:45;;;;;;;6.10;1.15;;;14.80;1.00;;;;;;5051610;28;20041;-37
2022/12/26 08:51:15;;;;;;;4.75;1.20;;;14.80;1.00;;;;;;5051627;28;20132;-37
2022/12/26 08:53:42;;;;;;;6.47;1.58;;;14.80;1.00;;;;;;5051207;28;20110;-37
2022/12/26 08:56:12;;;;;;;4.15;1.02;;;14.90;1.00;;;;;;5051706;28;20080;-36
2022/12/26 08:58:40;;;;;;;4.45;1.23;;;14.90;1.00;;;;;;5051548;28;20072;-37
2022/12/26 09:01:12;;;;;;;4.50;1.42;;;14.90;1.00;;;;;;5051638;28;20126;-37
2022/12/26 09:03:40;;;;;;;4.73;1.13;;;14.90;1.00;;;;;;5051170;28;20049;-37
2022/12/26 09:06:08;;;;;;;4.70;1.02;;;15.00;1.00;;;;;;5051484;28;20064;-37
2022/12/26 09:08:36;;;;;;;7.38;1.67;;;15.00;1.00;;;;;;5051519;28;20047;-36
2022/12/26 09:11:15;;;;;;;4.72;1.00;;;15.00;1.00;;;;;;5052867;28;20080;-37
2022/12/26 09:13:43;;;;;;;4.18;1.92;;;15.00;1.00;;;;;;5055387;28;20044;-36
2022/12/26 09:16:12;;;;;;;10.00;1.88;;;15.00;1.00;;;;;;5055389;28;20480;-36
2022/12/26 09:18:39;;;;;;;6.53;1.10;;;15.00;1.00;;;;;;5055445;28;20511;-36
2022/12/26 09:21:09;;;;;;;6.00;1.10;;;15.00;1.00;;;;;;5055505;28;20123;-37
2022/12/26 09:23:37;;;;;;;5.85;1.20;;;15.00;1.00;;;;;;5055072;28;20041;-37
2022/12/26 09:26:16;;;;;;;6.35;1.58;;;15.00;1.00;;;;;;5055281;28;20139;-37
2022/12/26 09:28:45;;;;;;;10.07;1.45;;;15.00;1.00;;;;;;5055370;28;20048;-37
2022/12/26 09:31:15;;;;;;;8.40;1.17;;;15.00;1.00;;;;;;5055206;28;20095;-36
2022/12/26 09:33:42;;;;;;;6.03;1.55;;;15.00;1.00;;;;;;5054883;28;20124;-38
2022/12/26 09:36:15;;;;;;;5.85;2.03;;;15.00;1.00;;;;;;5037197;28;20052;-38
2022/12/26 09:38:43;;;;;;;5.78;1.50;;;15.00;1.00;;;;;;5055090;28;20045;-37
2022/12/26 09:41:13;;;;;;;3.33;1.17;;;14.90;1.00;;;;;;5055035;28;20407;-38
2022/12/26 09:44:07;;;;;;;3.33;1.35;;;14.90;1.00;;;;;;5054936;28;20484;-37
2022/12/26 09:46:50;;;;;;;6.85;1.67;;;14.90;1.00;;;;;;5054938;28;20083;-37
2022/12/26 09:49:27;;;;;;;4.53;1.08;;;14.90;1.00;;;;;;5054831;28;20045;-37
2022/12/26 09:51:59;;;;;;;5.40;1.25;;;14.90;1.00;;;;;;5055030;28;20053;-37
2022/12/26 09:54:36;;;;;;;6.07;1.88;;;14.90;1.00;;;;;;5054350;28;20068;-36
2022/12/26 09:57:11;;;;;;;4.78;0.98;;;14.90;1.00;;;;;;5054872;28;20422;-37
2022/12/26 10:00:00;;;;;;;6.65;0.93;;;14.90;1.00;;;;;;5054711;28;20446;-37
2022/12/26 10:02:27;;;;;;;6.10;1.15;;;14.90;1.00;;;;;;5054733;28;20069;-37
2022/12/26 10:04:54;;;;;;;6.28;1.52;;;14.90;1.00;;;;;;5054327;28;20037;-36
2022/12/26 10:07:38;;;;;;;6.40;1.17;;;14.90;1.00;;;;;;5054505;28;20044;-36
2022/12/26 10:10:17;;;;;;;7.43;1.42;;;14.80;1.00;;;;;;5054539;28;20566;-37
2022/12/26 10:13:04;;;;;;;4.22;1.10;;;14.80;1.00;;;;;;5054154;28;20051;-37
2022/12/26 10:15:40;;;;;;;4.53;1.27;;;14.80;1.00;;;;;;5054405;28;20048;-37
2022/12/26 10:18:28;;;;;;;4.93;1.30;;;14.80;1.00;;;;;;5054394;28;20543;-37
2022/12/26 10:21:19;;;;;;;5.32;1.40;;;14.80;1.00;;;;;;5054466;28;20260;-37
2022/12/26 10:23:59;;;;;;;4.47;0.98;;;14.80;1.00;;;;;;5053020;28;20107;-37
2022/12/26 10:26:37;;;;;;;4.65;0.75;;;14.80;1.00;;;;;;5054476;28;20048;-37
2022/12/26 10:29:07;;;;;;;4.72;1.80;;;14.80;1.00;;;;;;5054192;28;20068;-37
2022/12/26 10:32:00;;;;;;;5.38;1.27;;;14.80;1.00;;;;;;5054162;28;20063;-38
2022/12/26 10:34:40;;;;;;;4.05;1.58;;;14.80;1.00;;;;;;5053586;28;20048;-36
2022/12/26 10:37:29;;;;;;;8.32;1.67;;;14.80;1.00;;;;;;5054053;28;20060;-37
2022/12/26 10:40:29;;;;;;;2.70;1.48;;;14.70;1.00;;;;;;5053997;28;20037;-37
2022/12/26 10:43:04;;;;;;;4.72;1.42;;;14.80;1.00;;;;;;5026143;28;20057;-37
2022/12/26 10:45:42;;;;;;;9.27;1.20;;;14.70;1.00;;;;;;5053727;28;20049;-36
2022/12/26 10:48:13;;;;;;;4.57;1.13;;;14.70;1.00;;;;;;5054104;28;20643;-36
2022/12/26 10:50:48;;;;;;;5.20;1.27;;;14.70;1.00;;;;;;5054182;28;20047;-38
2022/12/26 10:53:19;;;;;;;3.70;0.82;;;14.70;1.00;;;;;;5053418;28;20132;-38
2022/12/26 10:55:48;;;;;;;3.55;1.52;;;14.70;1.00;;;;;;5053926;28;20048;-37
2022/12/26 10:58:22;;;;;;;5.07;1.30;;;14.70;1.00;;;;;;5053622;28;20063;-36
2022/12/26 11:00:49;;;;;;;7.95;1.40;;;14.70;1.00;;;;;;5053867;28;20046;-36
2022/12/26 11:03:18;;;;;;;3.30;1.38;;;14.70;1.00;;;;;;5053267;28;20041;-36
2022/12/26 11:05:54;;;;;;;4.47;1.48;;;14.60;1.00;;;;;;5053246;28;20522;-36
2022/12/26 11:08:50;;;;;;;7.10;1.10;;;14.70;1.00;;;;;;5053327;28;20411;-37
2022/12/26 11:11:17;;;;;;;3.55;0.77;;;14.60;1.00;;;;;;5053386;28;20041;-36
2022/12/26 11:14:31;;;;;;;3.85;1.20;;;14.60;1.00;;;;;;5053028;28;20041;-37
2022/12/26 11:17:10;;;;;;;4.40;0.68;;;14.60;1.00;;;;;;5035469;28;20455;-38
2022/12/26 11:19:41;;;;;;;4.68;1.10;;;14.60;1.00;;;;;;5053165;28;20037;-37
2022/12/26 11:22:28;;;;;;;6.95;1.15;;;14.60;1.00;;;;;;5053246;28;20096;-37
2022/12/26 11:25:17;;;;;;;4.65;0.80;;;14.60;1.00;;;;;;5052827;28;20095;-37
2022/12/26 11:27:53;;;;;;;3.05;1.00;;;14.60;1.00;;;;;;5053121;28;20037;-37
2022/12/26 11:30:33;;;;;;;5.65;1.15;;;14.60;1.00;;;;;;5052931;28;20055;-38
2022/12/26 11:33:02;;;;;;;6.35;1.25;;;14.60;1.00;;;;;;5052634;28;20037;-36
2022/12/26 11:35:45;;;;;;;4.15;0.93;;;14.60;1.00;;;;;;5036055;28;20036;-36
2022/12/26 11:38:33;;;;;;;5.95;1.10;;;14.60;1.00;;;;;;5052866;28;20045;-36
2022/12/26 11:43:55;;;;;;;6.22;0.95;;;14.60;1.00;;;;;;5052276;28;19921;-37
2022/12/26 11:46:33;;;;;;;5.88;0.88;;;14.50;1.00;;;;;;5052716;28;20063;-38
2022/12/26 11:49:01;;;;;;;5.60;1.40;;;14.50;1.00;;;;;;5052608;28;20037;-37
2022/12/26 11:51:39;;;;;;;6.22;1.00;;;14.50;1.00;;;;;;5052580;28;20049;-37
2022/12/26 11:54:28;;;;;;;4.18;1.13;;;14.50;1.00;;;;;;5052370;28;20457;-37
2022/12/26 11:57:06;;;;;;;6.78;1.05;;;14.50;1.00;;;;;;5052580;28;20091;-38
2022/12/26 11:59:33;;;;;;;4.07;1.02;;;14.50;1.00;;;;;;5052573;28;20045;-37
2022/12/26 12:02:21;;;;;;;4.85;1.25;;;14.50;1.00;;;;;;5052304;28;20047;-37
2022/12/26 12:04:50;;;;;;;4.72;0.93;;;14.50;1.00;;;;;;5051769;28;20151;-36
2022/12/26 12:07:34;;;;;;;4.78;1.52;;;14.50;1.00;;;;;;5052365;28;20045;-36
2022/12/26 12:10:22;;;;;;;6.72;1.20;;;14.50;1.00;;;;;;5052252;28;20557;-35
2022/12/26 12:13:00;;;;;;;3.63;1.15;;;14.50;1.00;;;;;;5051920;28;20045;-37
2022/12/26 12:15:58;;;;;;;7.15;1.58;;;14.50;1.00;;;;;;5052014;28;20037;-37
2022/12/26 12:18:59;;;;;;;6.40;0.98;;;14.50;1.00;;;;;;5033766;28;20099;-36
2022/12/26 12:21:41;;;;;;;3.25;0.90;;;14.50;1.00;;;;;;5052548;28;20044;-37
2022/12/26 12:24:45;;;;;;;2.57;0.73;;;14.50;1.00;;;;;;5051936;28;20150;-38
2022/12/26 12:27:38;;;;;;;7.60;1.42;;;14.40;1.00;;;;;;5052170;28;20090;-37
2022/12/26 12:30:25;;;;;;;4.85;1.58;;;14.40;1.00;;;;;;5051912;28;20052;-38
2022/12/26 12:33:06;;;;;;;4.55;1.08;;;14.40;1.00;;;;;;5051590;28;20106;-37
2022/12/26 12:36:00;;;;;;;4.05;1.20;;;14.40;1.00;;;;;;5051650;28;20493;-38
2022/12/26 12:38:51;;;;;;;4.40;0.90;;;14.40;1.00;;;;;;5051913;28;20051;-38
2022/12/26 12:41:41;;;;;;;4.22;0.82;;;14.40;1.00;;;;;;5052049;28;20032;-37
2022/12/26 12:44:38;;;;;;;2.13;0.88;;;14.40;1.00;;;;;;5033829;28;20056;-36
2022/12/26 12:47:23;;;;;;;5.88;1.20;;;14.40;1.00;;;;;;5033586;28;20441;-36
2022/12/26 12:50:01;;;;;;;3.00;0.70;;;14.40;1.00;;;;;;5051753;28;20044;-38
2022/12/26 12:52:41;;;;;;;5.28;0.98;;;14.40;1.00;;;;;;5033921;28;20725;-36
2022/12/26 12:55:38;;;;;;;4.22;1.00;;;14.40;1.00;;;;;;5051490;28;20041;-37
2022/12/26 12:58:16;;;;;;;8.23;1.60;;;14.40;1.00;;;;;;5051651;28;20044;-37
2022/12/26 13:00:53;;;;;;;6.97;0.95;;;14.40;1.00;;;;;;5051758;28;20041;-36
2022/12/26 13:03:39;;;;;;;2.92;1.15;;;14.40;1.00;;;;;;5051409;28;20060;-37
2022/12/26 13:06:28;;;;;;;6.38;0.93;;;14.30;1.00;;;;;;5051381;28;20068;-38
2022/12/26 13:09:01;;;;;;;7.07;1.48;;;14.40;1.00;;;;;;5051612;28;20048;-37
2022/12/26 13:11:34;;;;;;;4.97;1.02;;;14.30;1.00;;;;;;5051666;28;20083;-37
2022/12/26 13:14:06;;;;;;;4.78;1.88;;;14.40;1.00;;;;;;5051029;28;20095;-38
2022/12/26 13:17:04;;;;;;;2.93;0.63;;;14.30;1.00;;;;;;5051400;28;20052;-36
2022/12/26 13:19:39;;;;;;;3.15;0.60;;;14.30;1.00;;;;;;5051427;28;20640;-37
2022/12/26 13:22:25;;;;;;;6.72;1.15;;;14.30;1.00;;;;;;5051529;28;20037;-36
2022/12/26 13:24:57;;;;;;;5.45;0.93;;;14.30;1.00;;;;;;5051329;28;20136;-37
2022/12/26 13:27:31;;;;;;;6.27;1.00;;;14.30;1.00;;;;;;5051532;28;20041;-36
2022/12/26 13:29:58;;;;;;;5.65;1.50;;;14.30;1.00;;;;;;5051347;28;20095;-36
2022/12/26 13:32:30;;;;;;;3.60;0.80;;;14.30;1.00;;;;;;5050990;28;20120;-38
2022/12/26 13:34:59;;;;;;;2.83;0.70;;;14.30;1.00;;;;;;5051069;28;20041;-39
2022/12/26 13:37:38;;;;;;;1.80;0.52;;;14.30;1.00;;;;;;5051313;28;20040;-37
2022/12/26 13:40:18;;;;;;;4.10;0.98;;;14.30;1.00;;;;;;5051241;28;20037;-38
2022/12/26 13:45:41;;;;;;;3.10;0.52;;;14.20;1.00;;;;;;5051258;28;20041;-38
2022/12/26 13:48:17;;;;;;;6.45;1.10;;;14.30;1.00;;;;;;5051147;28;20423;-37
2022/12/26 13:50:51;;;;;;;6.15;1.30;;;14.20;1.00;;;;;;5051250;28;20049;-38
2022/12/26 13:53:25;;;;;;;5.85;0.65;;;14.30;1.00;;;;;;5050697;28;20072;-38
2022/12/26 13:55:57;;;;;;;6.00;1.30;;;14.30;1.00;;;;;;5051041;28;20492;-37
2022/12/26 13:58:53;;;;;;;3.50;0.95;;;14.20;1.00;;;;;;5052768;28;20170;-37
2022/12/26 14:01:51;;;;;;;5.75;0.80;;;14.20;1.00;;;;;;5054818;28;20107;-37
2022/12/26 14:04:21;;;;;;;4.55;1.42;;;14.20;1.00;;;;;;5021913;28;20049;-36
2022/12/26 14:07:11;;;;;;;3.47;0.77;;;14.20;1.00;;;;;;5054622;28;20056;-37
2022/12/26 14:10:02;;;;;;;3.47;1.10;;;14.20;1.00;;;;;;5054787;28;20048;-38
2022/12/26 14:12:51;;;;;;;5.55;1.00;;;14.20;1.00;;;;;;5054573;28;20056;-38
2022/12/26 14:15:28;;;;;;;3.45;0.50;;;14.20;1.00;;;;;;5052484;28;20049;-37
2022/12/26 14:18:18;;;;;;;4.30;1.38;;;14.20;1.00;;;;;;5054386;28;20044;-36
2022/12/26 14:21:13;;;;;;;2.67;0.68;;;14.20;1.00;;;;;;5036705;28;20128;-37
2022/12/26 14:23:53;;;;;;;3.83;0.68;;;14.10;1.00;;;;;;5054005;28;20055;-37
2022/12/26 14:26:32;;;;;;;4.57;1.05;;;14.20;1.00;;;;;;5036976;28;20075;-38
2022/12/26 14:29:11;;;;;;;3.15;0.70;;;14.20;1.00;;;;;;5036549;28;20079;-38
2022/12/26 14:31:44;;;;;;;6.13;1.20;;;14.10;1.00;;;;;;5054219;28;20045;-37
2022/12/26 14:34:26;;;;;;;4.78;0.80;;;14.10;1.00;;;;;;5053851;28;20074;-37
2022/12/26 14:36:58;;;;;;;1.95;1.13;;;14.10;1.00;;;;;;5054114;28;20087;-38
2022/12/26 14:39:45;;;;;;;4.07;0.93;;;14.10;1.00;;;;;;5054081;28;20033;-38
2022/12/26 14:45:02;;;;;;;5.28;0.73;;;14.10;1.00;;;;;;5053617;28;20141;-37
2022/12/26 14:47:48;;;;;;;5.53;1.45;;;14.10;1.00;;;;;;5053987;28;20539;-39
2022/12/26 14:50:37;;;;;;;3.88;0.70;;;14.10;1.00;;;;;;5054078;28;20045;-38
2022/12/26 14:53:23;;;;;;;4.70;0.65;;;14.10;1.00;;;;;;5053587;28;20552;-37
2022/12/26 14:55:52;;;;;;;2.35;0.60;;;14.10;1.00;;;;;;5053560;28;20112;-38
2022/12/26 14:58:25;;;;;;;5.50;1.30;;;14.00;1.00;;;;;;5053731;28;20041;-37
2022/12/26 15:00:53;;;;;;;2.55;1.02;;;14.00;1.00;;;;;;5035852;28;20076;-38
2022/12/26 15:03:23;;;;;;;3.65;0.95;;;14.00;1.00;;;;;;5053198;28;20037;-38
2022/12/26 15:05:51;;;;;;;4.35;1.00;;;14.00;1.00;;;;;;5053408;28;20049;-39
2022/12/26 15:08:36;;;;;;;4.65;1.10;;;14.00;1.00;;;;;;5053169;28;20048;-37
2022/12/26 15:11:26;;;;;;;4.25;0.65;;;14.10;1.00;;;;;;5053449;28;20087;-38
2022/12/26 15:14:12;;;;;;;3.97;1.00;;;14.00;1.00;;;;;;5052994;28;20504;-37
2022/12/26 15:17:00;;;;;;;9.20;1.30;;;14.00;1.00;;;;;;5053254;28;20048;-37
2022/12/26 15:19:36;;;;;;;5.53;1.05;;;14.00;1.00;;;;;;5053307;28;20037;-37
2022/12/26 15:22:23;;;;;;;6.72;1.00;;;14.00;1.00;;;;;;5053245;28;20703;-37
2022/12/26 15:24:58;;;;;;;1.65;0.50;;;14.00;1.00;;;;;;5052852;28;20041;-37
2022/12/26 15:27:56;;;;;;;4.43;1.10;;;14.00;1.00;;;;;;5033625;28;20494;-37
2022/12/26 15:30:44;;;;;;;3.15;0.73;;;14.00;1.00;;;;;;5047338;28;20124;-38
2022/12/26 15:33:37;;;;;;;3.15;0.65;;;14.00;1.00;;;;;;5048071;28;20124;-38
2022/12/26 15:36:34;;;;;;;8.00;2.38;;;13.90;1.00;;;;;;5020407;28;20427;-37
2022/12/26 15:39:33;;;;;;;2.08;1.05;;;14.00;1.00;;;;;;5053196;28;20049;-37
2022/12/26 15:42:24;;;;;;;2.38;0.50;;;14.00;1.00;;;;;;5052845;28;20045;-36
2022/12/26 15:45:22;;;;;;;2.88;0.50;;;13.90;1.00;;;;;;5052553;28;20429;-36
2022/12/26 15:48:22;;;;;;;4.25;1.33;;;13.90;1.00;;;;;;5052811;28;20449;-37
2022/12/26 15:50:52;;;;;;;3.97;0.80;;;13.90;1.00;;;;;;5052711;28;20041;-37
2022/12/26 15:53:45;;;;;;;3.20;0.75;;;13.90;1.00;;;;;;5052350;28;20397;-37
2022/12/26 15:56:40;;;;;;;2.85;0.95;;;13.90;1.00;;;;;;5052604;28;20127;-36